sensor_id;sensor_type;location;lat;lon;timestamp;temperature;humidity
80779;SHT30;70170;47.856;10.956;2023-08-20T00:00:19;19.52;87.30
80779;SHT30;70170;47.856;10.956;2023-08-20T00:02:46;19.31;87.83
80779;SHT30;70170;47.856;10.956;2023-08-20T00:05:12;19.19;87.14
80779;SHT30;70170;47.856;10.956;2023-08-20T00:07:38;19.08;88.96
80779;SHT30;70170;47.856;10.956;2023-08-20T00:10:04;19.07;87.35
80779;SHT30;70170;47.856;10.956;2023-08-20T00:12:30;19.17;87.02
80779;SHT30;70170;47.856;10.956;2023-08-20T00:14:59;19.25;86.41
80779;SHT30;70170;47.856;10.956;2023-08-20T00:17:30;19.32;86.73
80779;SHT30;70170;47.856;10.956;2023-08-20T00:19:56;19.29;86.32
80779;SHT30;70170;47.856;10.956;2023-08-20T00:22:23;19.34;86.40
80779;SHT30;70170;47.856;10.956;2023-08-20T00:24:53;19.35;86.43
80779;SHT30;70170;47.856;10.956;2023-08-20T00:27:19;19.42;86.55
80779;SHT30;70170;47.856;10.956;2023-08-20T00:29:44;19.44;86.96
80779;SHT30;70170;47.856;10.956;2023-08-20T00:32:09;19.44;86.22
80779;SHT30;70170;47.856;10.956;2023-08-20T00:34:35;19.80;82.16
80779;SHT30;70170;47.856;10.956;2023-08-20T00:37:01;20.14;80.85
80779;SHT30;70170;47.856;10.956;2023-08-20T00:39:26;20.06;82.49
80779;SHT30;70170;47.856;10.956;2023-08-20T00:41:52;20.03;82.66
80779;SHT30;70170;47.856;10.956;2023-08-20T00:44:17;19.98;82.94
80779;SHT30;70170;47.856;10.956;2023-08-20T00:46:42;19.87;83.90
80779;SHT30;70170;47.856;10.956;2023-08-20T00:49:08;19.73;84.27
80779;SHT30;70170;47.856;10.956;2023-08-20T00:51:34;19.61;84.09
80779;SHT30;70170;47.856;10.956;2023-08-20T00:54:00;19.38;84.84
80779;SHT30;70170;47.856;10.956;2023-08-20T00:56:27;19.25;85.10
80779;SHT30;70170;47.856;10.956;2023-08-20T00:58:53;19.17;85.05
80779;SHT30;70170;47.856;10.956;2023-08-20T01:01:19;19.15;85.40
80779;SHT30;70170;47.856;10.956;2023-08-20T01:03:44;19.11;84.69
80779;SHT30;70170;47.856;10.956;2023-08-20T01:06:22;18.91;87.90
80779;SHT30;70170;47.856;10.956;2023-08-20T01:08:56;18.60;89.23
80779;SHT30;70170;47.856;10.956;2023-08-20T01:11:28;18.38;89.96
80779;SHT30;70170;47.856;10.956;2023-08-20T01:13:55;18.19;90.94
80779;SHT30;70170;47.856;10.956;2023-08-20T01:16:20;18.00;91.94
80779;SHT30;70170;47.856;10.956;2023-08-20T01:18:47;17.89;92.52
80779;SHT30;70170;47.856;10.956;2023-08-20T01:21:32;17.76;92.90
80779;SHT30;70170;47.856;10.956;2023-08-20T01:24:05;17.65;93.47
80779;SHT30;70170;47.856;10.956;2023-08-20T01:26:48;17.66;93.57
80779;SHT30;70170;47.856;10.956;2023-08-20T01:29:19;17.61;93.55
80779;SHT30;70170;47.856;10.956;2023-08-20T01:31:45;17.49;93.81
80779;SHT30;70170;47.856;10.956;2023-08-20T01:34:11;17.39;93.84
80779;SHT30;70170;47.856;10.956;2023-08-20T01:36:37;17.21;93.67
80779;SHT30;70170;47.856;10.956;2023-08-20T01:39:03;17.07;93.81
80779;SHT30;70170;47.856;10.956;2023-08-20T01:41:30;17.06;91.88
80779;SHT30;70170;47.856;10.956;2023-08-20T01:43:55;17.11;90.59
80779;SHT30;70170;47.856;10.956;2023-08-20T01:46:20;17.59;88.84
80779;SHT30;70170;47.856;10.956;2023-08-20T01:48:46;17.55;89.22
80779;SHT30;70170;47.856;10.956;2023-08-20T01:51:11;18.66;85.46
80779;SHT30;70170;47.856;10.956;2023-08-20T01:53:37;19.25;82.76
80779;SHT30;70170;47.856;10.956;2023-08-20T01:56:02;19.28;82.15
80779;SHT30;70170;47.856;10.956;2023-08-20T01:58:27;19.10;82.96
80779;SHT30;70170;47.856;10.956;2023-08-20T02:00:53;18.97;83.09
80779;SHT30;70170;47.856;10.956;2023-08-20T02:03:18;18.76;84.22
80779;SHT30;70170;47.856;10.956;2023-08-20T02:05:43;18.52;85.07
80779;SHT30;70170;47.856;10.956;2023-08-20T02:08:09;18.35;85.63
80779;SHT30;70170;47.856;10.956;2023-08-20T02:10:34;18.18;86.43
80779;SHT30;70170;47.856;10.956;2023-08-20T02:13:00;18.12;87.16
80779;SHT30;70170;47.856;10.956;2023-08-20T02:15:25;17.97;87.97
80779;SHT30;70170;47.856;10.956;2023-08-20T02:17:50;17.82;88.11
80779;SHT30;70170;47.856;10.956;2023-08-20T02:20:16;17.67;88.85
80779;SHT30;70170;47.856;10.956;2023-08-20T02:22:41;17.56;89.69
80779;SHT30;70170;47.856;10.956;2023-08-20T02:25:07;17.45;89.83
80779;SHT30;70170;47.856;10.956;2023-08-20T02:27:32;17.34;91.01
80779;SHT30;70170;47.856;10.956;2023-08-20T02:29:58;17.11;91.95
80779;SHT30;70170;47.856;10.956;2023-08-20T02:32:24;16.90;92.75
80779;SHT30;70170;47.856;10.956;2023-08-20T02:34:53;16.69;93.49
80779;SHT30;70170;47.856;10.956;2023-08-20T02:37:18;16.57;94.10
80779;SHT30;70170;47.856;10.956;2023-08-20T02:39:44;16.42;94.59
80779;SHT30;70170;47.856;10.956;2023-08-20T02:42:09;16.33;95.50
80779;SHT30;70170;47.856;10.956;2023-08-20T02:44:34;16.26;96.62
80779;SHT30;70170;47.856;10.956;2023-08-20T02:47:00;16.28;97.24
80779;SHT30;70170;47.856;10.956;2023-08-20T02:49:25;16.12;96.94
80779;SHT30;70170;47.856;10.956;2023-08-20T02:51:50;16.04;97.18
80779;SHT30;70170;47.856;10.956;2023-08-20T02:54:15;16.00;97.43
80779;SHT30;70170;47.856;10.956;2023-08-20T02:56:41;16.00;97.83
80779;SHT30;70170;47.856;10.956;2023-08-20T02:59:06;16.08;98.03
80779;SHT30;70170;47.856;10.956;2023-08-20T03:01:32;16.09;97.42
80779;SHT30;70170;47.856;10.956;2023-08-20T03:03:57;16.17;97.05
80779;SHT30;70170;47.856;10.956;2023-08-20T03:06:22;16.36;96.34
80779;SHT30;70170;47.856;10.956;2023-08-20T03:08:50;16.45;94.88
80779;SHT30;70170;47.856;10.956;2023-08-20T03:11:16;16.67;93.53
80779;SHT30;70170;47.856;10.956;2023-08-20T03:13:41;16.45;94.25
80779;SHT30;70170;47.856;10.956;2023-08-20T03:16:06;16.28;94.73
80779;SHT30;70170;47.856;10.956;2023-08-20T03:18:32;16.19;95.97
80779;SHT30;70170;47.856;10.956;2023-08-20T03:20:57;16.02;96.02
80779;SHT30;70170;47.856;10.956;2023-08-20T03:23:23;15.90;97.07
80779;SHT30;70170;47.856;10.956;2023-08-20T03:25:49;15.86;97.61
80779;SHT30;70170;47.856;10.956;2023-08-20T03:28:15;15.62;97.81
80779;SHT30;70170;47.856;10.956;2023-08-20T03:30:40;15.49;98.15
80779;SHT30;70170;47.856;10.956;2023-08-20T03:33:06;15.49;98.73
80779;SHT30;70170;47.856;10.956;2023-08-20T03:35:31;15.45;99.23
80779;SHT30;70170;47.856;10.956;2023-08-20T03:37:56;15.35;99.26
80779;SHT30;70170;47.856;10.956;2023-08-20T03:40:22;15.35;99.44
80779;SHT30;70170;47.856;10.956;2023-08-20T03:42:47;15.49;99.07
80779;SHT30;70170;47.856;10.956;2023-08-20T03:45:12;15.52;98.81
80779;SHT30;70170;47.856;10.956;2023-08-20T03:47:38;15.69;98.63
80779;SHT30;70170;47.856;10.956;2023-08-20T03:50:03;15.63;98.47
80779;SHT30;70170;47.856;10.956;2023-08-20T03:52:29;15.91;97.46
80779;SHT30;70170;47.856;10.956;2023-08-20T03:54:54;15.89;97.07
80779;SHT30;70170;47.856;10.956;2023-08-20T03:57:20;16.09;96.22
80779;SHT30;70170;47.856;10.956;2023-08-20T03:59:45;15.90;96.65
80779;SHT30;70170;47.856;10.956;2023-08-20T04:02:11;15.76;96.92
80779;SHT30;70170;47.856;10.956;2023-08-20T04:04:36;15.60;96.89
80779;SHT30;70170;47.856;10.956;2023-08-20T04:07:02;15.46;97.62
80779;SHT30;70170;47.856;10.956;2023-08-20T04:09:27;15.53;97.80
80779;SHT30;70170;47.856;10.956;2023-08-20T04:11:53;15.50;97.60
80779;SHT30;70170;47.856;10.956;2023-08-20T04:14:18;15.49;98.09
80779;SHT30;70170;47.856;10.956;2023-08-20T04:16:44;15.43;98.09
80779;SHT30;70170;47.856;10.956;2023-08-20T04:19:09;15.38;98.13
80779;SHT30;70170;47.856;10.956;2023-08-20T04:21:34;15.21;98.06
80779;SHT30;70170;47.856;10.956;2023-08-20T04:24:00;15.08;98.60
80779;SHT30;70170;47.856;10.956;2023-08-20T04:26:25;15.28;99.09
80779;SHT30;70170;47.856;10.956;2023-08-20T04:28:50;15.57;98.04
80779;SHT30;70170;47.856;10.956;2023-08-20T04:31:15;15.69;97.38
80779;SHT30;70170;47.856;10.956;2023-08-20T04:33:41;15.54;97.51
80779;SHT30;70170;47.856;10.956;2023-08-20T04:36:06;15.45;98.03
80779;SHT30;70170;47.856;10.956;2023-08-20T04:38:32;15.43;98.63
80779;SHT30;70170;47.856;10.956;2023-08-20T04:40:57;15.67;98.21
80779;SHT30;70170;47.856;10.956;2023-08-20T04:43:22;15.81;97.70
80779;SHT30;70170;47.856;10.956;2023-08-20T04:45:49;16.04;96.78
80779;SHT30;70170;47.856;10.956;2023-08-20T04:48:14;16.29;95.97
80779;SHT30;70170;47.856;10.956;2023-08-20T04:50:40;16.48;95.12
80779;SHT30;70170;47.856;10.956;2023-08-20T04:53:05;16.94;93.13
80779;SHT30;70170;47.856;10.956;2023-08-20T04:55:30;17.27;92.24
80779;SHT30;70170;47.856;10.956;2023-08-20T04:57:56;17.19;92.32
80779;SHT30;70170;47.856;10.956;2023-08-20T05:00:22;17.03;92.85
80779;SHT30;70170;47.856;10.956;2023-08-20T05:02:47;16.91;93.46
80779;SHT30;70170;47.856;10.956;2023-08-20T05:05:13;17.19;92.70
80779;SHT30;70170;47.856;10.956;2023-08-20T05:07:38;17.01;92.92
80779;SHT30;70170;47.856;10.956;2023-08-20T05:10:04;16.83;93.48
80779;SHT30;70170;47.856;10.956;2023-08-20T05:12:29;16.73;94.10
80779;SHT30;70170;47.856;10.956;2023-08-20T05:14:55;16.66;95.33
80779;SHT30;70170;47.856;10.956;2023-08-20T05:17:20;16.77;94.50
80779;SHT30;70170;47.856;10.956;2023-08-20T05:19:45;17.12;93.64
80779;SHT30;70170;47.856;10.956;2023-08-20T05:22:11;17.17;94.28
80779;SHT30;70170;47.856;10.956;2023-08-20T05:24:37;17.12;93.85
80779;SHT30;70170;47.856;10.956;2023-08-20T05:27:23;17.47;92.54
80779;SHT30;70170;47.856;10.956;2023-08-20T05:29:48;18.24;89.65
80779;SHT30;70170;47.856;10.956;2023-08-20T05:32:14;18.94;87.00
80779;SHT30;70170;47.856;10.956;2023-08-20T05:34:41;19.61;85.34
80779;SHT30;70170;47.856;10.956;2023-08-20T05:37:06;19.96;84.10
80779;SHT30;70170;47.856;10.956;2023-08-20T05:39:37;19.93;82.78
80779;SHT30;70170;47.856;10.956;2023-08-20T05:42:03;20.31;81.79
80779;SHT30;70170;47.856;10.956;2023-08-20T05:44:29;20.16;82.39
80779;SHT30;70170;47.856;10.956;2023-08-20T05:46:54;19.98;83.00
80779;SHT30;70170;47.856;10.956;2023-08-20T05:49:19;19.97;83.57
80779;SHT30;70170;47.856;10.956;2023-08-20T05:51:45;20.34;82.63
80779;SHT30;70170;47.856;10.956;2023-08-20T05:54:10;20.72;81.00
80779;SHT30;70170;47.856;10.956;2023-08-20T05:56:37;21.14;81.04
80779;SHT30;70170;47.856;10.956;2023-08-20T05:59:02;21.58;79.43
80779;SHT30;70170;47.856;10.956;2023-08-20T06:01:28;21.94;77.94
80779;SHT30;70170;47.856;10.956;2023-08-20T06:03:53;22.20;76.98
80779;SHT30;70170;47.856;10.956;2023-08-20T06:06:18;22.43;76.21
80779;SHT30;70170;47.856;10.956;2023-08-20T06:08:43;23.04;74.83
80779;SHT30;70170;47.856;10.956;2023-08-20T06:11:09;23.65;73.62
80779;SHT30;70170;47.856;10.956;2023-08-20T06:13:34;24.16;71.80
80779;SHT30;70170;47.856;10.956;2023-08-20T06:15:59;24.65;70.96
80779;SHT30;70170;47.856;10.956;2023-08-20T06:18:25;24.96;69.74
80779;SHT30;70170;47.856;10.956;2023-08-20T06:20:50;25.27;68.59
80779;SHT30;70170;47.856;10.956;2023-08-20T06:23:15;25.51;67.33
80779;SHT30;70170;47.856;10.956;2023-08-20T06:25:41;26.01;66.87
80779;SHT30;70170;47.856;10.956;2023-08-20T06:28:08;26.16;66.44
80779;SHT30;70170;47.856;10.956;2023-08-20T06:30:33;26.35;66.03
80779;SHT30;70170;47.856;10.956;2023-08-20T06:32:58;26.29;66.00
80779;SHT30;70170;47.856;10.956;2023-08-20T06:35:24;26.61;65.98
80779;SHT30;70170;47.856;10.956;2023-08-20T06:37:49;26.92;63.85
80779;SHT30;70170;47.856;10.956;2023-08-20T06:40:14;27.25;63.41
80779;SHT30;70170;47.856;10.956;2023-08-20T06:42:39;27.16;64.19
80779;SHT30;70170;47.856;10.956;2023-08-20T06:45:05;26.75;64.18
80779;SHT30;70170;47.856;10.956;2023-08-20T06:47:31;26.30;65.58
80779;SHT30;70170;47.856;10.956;2023-08-20T06:49:56;26.57;63.43
80779;SHT30;70170;47.856;10.956;2023-08-20T06:52:21;26.27;65.12
80779;SHT30;70170;47.856;10.956;2023-08-20T06:54:47;26.61;64.05
80779;SHT30;70170;47.856;10.956;2023-08-20T06:57:12;26.57;62.96
80779;SHT30;70170;47.856;10.956;2023-08-20T06:59:37;26.84;64.08
80779;SHT30;70170;47.856;10.956;2023-08-20T07:02:03;27.40;62.59
80779;SHT30;70170;47.856;10.956;2023-08-20T07:04:31;27.51;61.84
80779;SHT30;70170;47.856;10.956;2023-08-20T07:06:58;27.53;61.45
80779;SHT30;70170;47.856;10.956;2023-08-20T07:09:23;28.12;60.70
80779;SHT30;70170;47.856;10.956;2023-08-20T07:11:49;28.86;58.81
80779;SHT30;70170;47.856;10.956;2023-08-20T07:14:14;29.36;57.67
80779;SHT30;70170;47.856;10.956;2023-08-20T07:16:39;29.70;56.71
80779;SHT30;70170;47.856;10.956;2023-08-20T07:19:05;29.64;57.47
80779;SHT30;70170;47.856;10.956;2023-08-20T07:21:30;29.80;56.48
80779;SHT30;70170;47.856;10.956;2023-08-20T07:23:55;29.96;55.85
80779;SHT30;70170;47.856;10.956;2023-08-20T07:26:21;30.27;54.34
80779;SHT30;70170;47.856;10.956;2023-08-20T07:28:46;30.56;53.09
80779;SHT30;70170;47.856;10.956;2023-08-20T07:31:29;30.79;53.90
80779;SHT30;70170;47.856;10.956;2023-08-20T07:33:55;30.18;55.78
80779;SHT30;70170;47.856;10.956;2023-08-20T07:36:22;30.01;57.20
80779;SHT30;70170;47.856;10.956;2023-08-20T07:38:47;30.18;56.14
80779;SHT30;70170;47.856;10.956;2023-08-20T07:41:13;30.24;56.12
80779;SHT30;70170;47.856;10.956;2023-08-20T07:43:39;30.36;55.64
80779;SHT30;70170;47.856;10.956;2023-08-20T07:46:06;30.36;56.10
80779;SHT30;70170;47.856;10.956;2023-08-20T07:48:32;30.63;55.87
80779;SHT30;70170;47.856;10.956;2023-08-20T07:50:57;30.77;54.76
80779;SHT30;70170;47.856;10.956;2023-08-20T07:53:23;30.93;52.75
80779;SHT30;70170;47.856;10.956;2023-08-20T07:55:48;31.49;51.08
80779;SHT30;70170;47.856;10.956;2023-08-20T07:58:14;31.96;50.84
80779;SHT30;70170;47.856;10.956;2023-08-20T08:00:39;31.72;50.14
80779;SHT30;70170;47.856;10.956;2023-08-20T08:03:05;31.72;50.54
80779;SHT30;70170;47.856;10.956;2023-08-20T08:05:30;31.72;51.45
80779;SHT30;70170;47.856;10.956;2023-08-20T08:07:55;31.90;50.82
80779;SHT30;70170;47.856;10.956;2023-08-20T08:10:21;31.90;52.01
80779;SHT30;70170;47.856;10.956;2023-08-20T08:12:46;32.03;50.87
80779;SHT30;70170;47.856;10.956;2023-08-20T08:15:12;31.72;51.37
80779;SHT30;70170;47.856;10.956;2023-08-20T08:17:38;31.72;49.71
80779;SHT30;70170;47.856;10.956;2023-08-20T08:20:03;31.18;51.25
80779;SHT30;70170;47.856;10.956;2023-08-20T08:22:30;30.91;52.25
80779;SHT30;70170;47.856;10.956;2023-08-20T08:24:55;31.66;51.60
80779;SHT30;70170;47.856;10.956;2023-08-20T08:27:20;31.83;51.29
80779;SHT30;70170;47.856;10.956;2023-08-20T08:29:46;31.34;51.83
80779;SHT30;70170;47.856;10.956;2023-08-20T08:32:11;31.59;51.69
80779;SHT30;70170;47.856;10.956;2023-08-20T08:34:37;32.08;50.25
80779;SHT30;70170;47.856;10.956;2023-08-20T08:37:02;31.32;53.39
80779;SHT30;70170;47.856;10.956;2023-08-20T08:39:27;31.43;53.02
80779;SHT30;70170;47.856;10.956;2023-08-20T08:41:59;31.84;52.56
80779;SHT30;70170;47.856;10.956;2023-08-20T08:44:28;31.52;53.27
80779;SHT30;70170;47.856;10.956;2023-08-20T08:46:53;30.82;51.76
80779;SHT30;70170;47.856;10.956;2023-08-20T08:49:19;30.42;52.76
80779;SHT30;70170;47.856;10.956;2023-08-20T08:51:45;31.11;52.42
80779;SHT30;70170;47.856;10.956;2023-08-20T08:54:12;29.83;53.07
80779;SHT30;70170;47.856;10.956;2023-08-20T08:56:38;30.55;52.87
80779;SHT30;70170;47.856;10.956;2023-08-20T08:59:04;31.04;50.90
80779;SHT30;70170;47.856;10.956;2023-08-20T09:01:30;31.24;48.93
80779;SHT30;70170;47.856;10.956;2023-08-20T09:03:56;31.87;49.51
80779;SHT30;70170;47.856;10.956;2023-08-20T09:06:21;31.55;47.64
80779;SHT30;70170;47.856;10.956;2023-08-20T09:08:46;31.56;48.57
80779;SHT30;70170;47.856;10.956;2023-08-20T09:11:12;32.25;48.53
80779;SHT30;70170;47.856;10.956;2023-08-20T09:13:39;32.20;49.05
80779;SHT30;70170;47.856;10.956;2023-08-20T09:16:10;32.01;47.69
80779;SHT30;70170;47.856;10.956;2023-08-20T09:18:44;32.27;48.73
80779;SHT30;70170;47.856;10.956;2023-08-20T09:21:10;32.63;47.88
80779;SHT30;70170;47.856;10.956;2023-08-20T09:23:37;32.11;50.95
80779;SHT30;70170;47.856;10.956;2023-08-20T09:26:04;31.49;53.48
80779;SHT30;70170;47.856;10.956;2023-08-20T09:28:44;30.98;54.34
80779;SHT30;70170;47.856;10.956;2023-08-20T09:31:10;31.00;53.89
80779;SHT30;70170;47.856;10.956;2023-08-20T09:33:36;31.32;52.04
80779;SHT30;70170;47.856;10.956;2023-08-20T09:36:03;31.47;53.52
80779;SHT30;70170;47.856;10.956;2023-08-20T09:38:28;31.69;52.43
80779;SHT30;70170;47.856;10.956;2023-08-20T09:40:54;31.72;50.98
80779;SHT30;70170;47.856;10.956;2023-08-20T09:43:26;32.31;50.74
80779;SHT30;70170;47.856;10.956;2023-08-20T09:45:55;32.55;48.16
80779;SHT30;70170;47.856;10.956;2023-08-20T09:48:21;32.17;47.81
80779;SHT30;70170;47.856;10.956;2023-08-20T09:50:49;32.89;47.64
80779;SHT30;70170;47.856;10.956;2023-08-20T09:53:34;33.72;45.68
80779;SHT30;70170;47.856;10.956;2023-08-20T09:56:22;33.06;43.95
80779;SHT30;70170;47.856;10.956;2023-08-20T09:58:53;32.99;45.85
80779;SHT30;70170;47.856;10.956;2023-08-20T10:01:19;33.00;44.54
80779;SHT30;70170;47.856;10.956;2023-08-20T10:03:45;33.92;42.63
80779;SHT30;70170;47.856;10.956;2023-08-20T10:06:11;33.65;45.27
80779;SHT30;70170;47.856;10.956;2023-08-20T10:08:36;32.46;47.79
80779;SHT30;70170;47.856;10.956;2023-08-20T10:11:02;31.29;48.43
80779;SHT30;70170;47.856;10.956;2023-08-20T10:13:27;30.82;46.18
80779;SHT30;70170;47.856;10.956;2023-08-20T10:15:53;30.70;49.07
80779;SHT30;70170;47.856;10.956;2023-08-20T10:18:21;30.64;48.28
80779;SHT30;70170;47.856;10.956;2023-08-20T10:20:49;30.25;50.87
80779;SHT30;70170;47.856;10.956;2023-08-20T10:23:20;30.29;46.51
80779;SHT30;70170;47.856;10.956;2023-08-20T10:25:45;30.19;49.60
80779;SHT30;70170;47.856;10.956;2023-08-20T10:30:37;30.29;47.11
80779;SHT30;70170;47.856;10.956;2023-08-20T10:33:03;30.07;50.49
80779;SHT30;70170;47.856;10.956;2023-08-20T10:35:46;29.81;44.39
80779;SHT30;70170;47.856;10.956;2023-08-20T10:38:13;29.84;48.59
80779;SHT30;70170;47.856;10.956;2023-08-20T10:46:06;29.70;49.90
80779;SHT30;70170;47.856;10.956;2023-08-20T10:48:33;29.83;47.88
80779;SHT30;70170;47.856;10.956;2023-08-20T10:51:32;29.92;50.29
80779;SHT30;70170;47.856;10.956;2023-08-20T10:59:15;30.67;49.34
80779;SHT30;70170;47.856;10.956;2023-08-20T11:01:45;29.94;50.29
80779;SHT30;70170;47.856;10.956;2023-08-20T11:04:11;30.39;50.85
80779;SHT30;70170;47.856;10.956;2023-08-20T11:06:38;30.14;49.22
80779;SHT30;70170;47.856;10.956;2023-08-20T11:09:04;30.55;48.84
80779;SHT30;70170;47.856;10.956;2023-08-20T11:11:30;30.18;49.76
80779;SHT30;70170;47.856;10.956;2023-08-20T11:13:57;30.63;50.30
80779;SHT30;70170;47.856;10.956;2023-08-20T11:16:22;30.73;48.47
80779;SHT30;70170;47.856;10.956;2023-08-20T11:18:47;30.28;46.66
80779;SHT30;70170;47.856;10.956;2023-08-20T11:21:13;30.86;49.45
80779;SHT30;70170;47.856;10.956;2023-08-20T11:23:39;30.88;48.44
80779;SHT30;70170;47.856;10.956;2023-08-20T11:26:07;30.80;48.13
80779;SHT30;70170;47.856;10.956;2023-08-20T11:28:33;30.98;48.00
80779;SHT30;70170;47.856;10.956;2023-08-20T11:30:58;30.80;48.43
80779;SHT30;70170;47.856;10.956;2023-08-20T11:33:23;30.56;48.09
80779;SHT30;70170;47.856;10.956;2023-08-20T11:35:50;30.88;46.12
80779;SHT30;70170;47.856;10.956;2023-08-20T11:38:16;31.19;46.09
80779;SHT30;70170;47.856;10.956;2023-08-20T11:40:41;30.98;48.72
80779;SHT30;70170;47.856;10.956;2023-08-20T11:43:07;31.35;47.14
80779;SHT30;70170;47.856;10.956;2023-08-20T11:45:33;31.27;47.50
80779;SHT30;70170;47.856;10.956;2023-08-20T11:47:58;31.58;44.71
80779;SHT30;70170;47.856;10.956;2023-08-20T11:50:24;31.67;48.97
80779;SHT30;70170;47.856;10.956;2023-08-20T11:52:52;31.72;49.79
80779;SHT30;70170;47.856;10.956;2023-08-20T11:55:22;31.62;47.41
80779;SHT30;70170;47.856;10.956;2023-08-20T11:57:52;32.16;44.36
80779;SHT30;70170;47.856;10.956;2023-08-20T12:00:24;31.12;48.21
80779;SHT30;70170;47.856;10.956;2023-08-20T12:02:53;32.65;42.72
80779;SHT30;70170;47.856;10.956;2023-08-20T12:05:19;33.04;41.62
80779;SHT30;70170;47.856;10.956;2023-08-20T12:07:55;33.28;41.81
80779;SHT30;70170;47.856;10.956;2023-08-20T12:10:21;33.09;42.87
80779;SHT30;70170;47.856;10.956;2023-08-20T12:12:48;33.09;43.25
80779;SHT30;70170;47.856;10.956;2023-08-20T12:15:13;32.54;40.78
80779;SHT30;70170;47.856;10.956;2023-08-20T12:17:38;32.86;40.87
80779;SHT30;70170;47.856;10.956;2023-08-20T12:20:04;32.55;42.71
80779;SHT30;70170;47.856;10.956;2023-08-20T12:22:38;32.84;41.09
80779;SHT30;70170;47.856;10.956;2023-08-20T12:25:03;31.56;43.25
80779;SHT30;70170;47.856;10.956;2023-08-20T12:27:29;31.86;42.20
80779;SHT30;70170;47.856;10.956;2023-08-20T12:29:54;32.07;46.02
80779;SHT30;70170;47.856;10.956;2023-08-20T12:32:19;32.06;46.29
80779;SHT30;70170;47.856;10.956;2023-08-20T12:34:45;31.70;45.87
80779;SHT30;70170;47.856;10.956;2023-08-20T12:37:10;32.52;44.08
80779;SHT30;70170;47.856;10.956;2023-08-20T12:39:37;33.16;43.04
80779;SHT30;70170;47.856;10.956;2023-08-20T12:42:02;33.96;41.21
80779;SHT30;70170;47.856;10.956;2023-08-20T12:44:27;33.90;41.32
80779;SHT30;70170;47.856;10.956;2023-08-20T12:46:53;33.82;41.02
80779;SHT30;70170;47.856;10.956;2023-08-20T12:49:18;33.86;40.71
80779;SHT30;70170;47.856;10.956;2023-08-20T12:51:43;33.82;40.27
80779;SHT30;70170;47.856;10.956;2023-08-20T12:54:09;34.16;41.35
80779;SHT30;70170;47.856;10.956;2023-08-20T12:56:34;34.21;42.89
80779;SHT30;70170;47.856;10.956;2023-08-20T12:58:59;32.54;45.61
80779;SHT30;70170;47.856;10.956;2023-08-20T13:01:24;32.45;44.36
80779;SHT30;70170;47.856;10.956;2023-08-20T13:03:50;32.76;42.64
80779;SHT30;70170;47.856;10.956;2023-08-20T13:06:16;33.37;38.76
80779;SHT30;70170;47.856;10.956;2023-08-20T13:08:41;33.95;41.17
80779;SHT30;70170;47.856;10.956;2023-08-20T13:11:08;32.78;39.87
80779;SHT30;70170;47.856;10.956;2023-08-20T13:13:34;32.48;40.14
80779;SHT30;70170;47.856;10.956;2023-08-20T13:16:00;33.27;44.30
80779;SHT30;70170;47.856;10.956;2023-08-20T13:18:26;32.79;41.69
80779;SHT30;70170;47.856;10.956;2023-08-20T13:20:52;33.10;40.91
80779;SHT30;70170;47.856;10.956;2023-08-20T13:23:18;32.59;44.12
80779;SHT30;70170;47.856;10.956;2023-08-20T13:25:43;32.78;42.15
80779;SHT30;70170;47.856;10.956;2023-08-20T13:28:09;33.26;41.31
80779;SHT30;70170;47.856;10.956;2023-08-20T13:30:34;32.21;42.11
80779;SHT30;70170;47.856;10.956;2023-08-20T13:32:59;33.13;41.90
80779;SHT30;70170;47.856;10.956;2023-08-20T13:35:25;32.95;44.61
80779;SHT30;70170;47.856;10.956;2023-08-20T13:37:51;32.16;41.51
80779;SHT30;70170;47.856;10.956;2023-08-20T13:40:18;33.55;40.47
80779;SHT30;70170;47.856;10.956;2023-08-20T13:42:43;33.92;39.11
80779;SHT30;70170;47.856;10.956;2023-08-20T13:45:08;33.76;39.79
80779;SHT30;70170;47.856;10.956;2023-08-20T13:47:34;33.31;39.30
80779;SHT30;70170;47.856;10.956;2023-08-20T13:50:00;33.69;37.09
80779;SHT30;70170;47.856;10.956;2023-08-20T13:52:25;33.85;40.67
80779;SHT30;70170;47.856;10.956;2023-08-20T13:54:50;33.86;38.69
80779;SHT30;70170;47.856;10.956;2023-08-20T13:57:16;34.36;36.94
80779;SHT30;70170;47.856;10.956;2023-08-20T13:59:41;34.21;38.87
80779;SHT30;70170;47.856;10.956;2023-08-20T14:02:06;33.98;38.55
80779;SHT30;70170;47.856;10.956;2023-08-20T14:04:32;34.10;37.78
80779;SHT30;70170;47.856;10.956;2023-08-20T14:06:58;34.53;38.35
80779;SHT30;70170;47.856;10.956;2023-08-20T14:09:23;33.31;40.36
80779;SHT30;70170;47.856;10.956;2023-08-20T14:11:48;33.81;40.34
80779;SHT30;70170;47.856;10.956;2023-08-20T14:14:14;33.72;38.25
80779;SHT30;70170;47.856;10.956;2023-08-20T14:16:39;33.14;39.18
80779;SHT30;70170;47.856;10.956;2023-08-20T14:19:05;32.99;42.17
80779;SHT30;70170;47.856;10.956;2023-08-20T14:21:30;33.10;40.88
80779;SHT30;70170;47.856;10.956;2023-08-20T14:23:56;34.00;39.29
80779;SHT30;70170;47.856;10.956;2023-08-20T14:26:21;33.23;38.71
80779;SHT30;70170;47.856;10.956;2023-08-20T14:28:47;34.30;42.35
80779;SHT30;70170;47.856;10.956;2023-08-20T14:31:12;33.57;39.32
80779;SHT30;70170;47.856;10.956;2023-08-20T14:33:38;33.02;44.09
80779;SHT30;70170;47.856;10.956;2023-08-20T14:36:03;33.93;42.60
80779;SHT30;70170;47.856;10.956;2023-08-20T14:38:29;34.55;37.35
80779;SHT30;70170;47.856;10.956;2023-08-20T14:40:59;34.10;39.16
80779;SHT30;70170;47.856;10.956;2023-08-20T14:43:24;33.48;41.00
80779;SHT30;70170;47.856;10.956;2023-08-20T14:45:50;34.05;40.71
80779;SHT30;70170;47.856;10.956;2023-08-20T14:48:15;34.06;41.03
80779;SHT30;70170;47.856;10.956;2023-08-20T14:50:40;33.27;41.82
80779;SHT30;70170;47.856;10.956;2023-08-20T14:53:06;33.14;42.07
80779;SHT30;70170;47.856;10.956;2023-08-20T14:55:31;32.80;41.83
80779;SHT30;70170;47.856;10.956;2023-08-20T14:57:56;33.10;44.79
80779;SHT30;70170;47.856;10.956;2023-08-20T15:00:22;33.41;43.35
80779;SHT30;70170;47.856;10.956;2023-08-20T15:02:48;33.02;43.05
80779;SHT30;70170;47.856;10.956;2023-08-20T15:05:13;33.11;44.69
80779;SHT30;70170;47.856;10.956;2023-08-20T15:07:39;32.86;43.62
80779;SHT30;70170;47.856;10.956;2023-08-20T15:10:05;33.58;42.06
80779;SHT30;70170;47.856;10.956;2023-08-20T15:12:34;33.14;43.18
80779;SHT30;70170;47.856;10.956;2023-08-20T15:15:04;33.89;42.77
80779;SHT30;70170;47.856;10.956;2023-08-20T15:17:30;33.73;41.70
80779;SHT30;70170;47.856;10.956;2023-08-20T15:19:57;34.10;40.48
80779;SHT30;70170;47.856;10.956;2023-08-20T15:22:22;33.66;41.13